Time;durP1;ratioP1;P1;durP2;ratioP2;P2;SDS_P1;SDS_P2;PMS_P1;PMS_P2;Temp;Humidity;BMP_temperature;BMP_pressure;BME280_temperature;BME280_humidity;BME280_pressure;Samples;Min_cycle;Max_cycle;Signal;HPM_P1;HPM_P2
2021/12/24 00:00:56;;;;;;;13.90;6.40;;;;;;;-1.11;77.11;96829.72;5093392;28;20469;-32
2021/12/24 00:03:23;;;;;;;12.37;6.00;;;;;;;-1.10;77.05;96830.53;5092965;28;20443;-32
2021/12/24 00:05:51;;;;;;;7.40;6.07;;;;;;;-1.14;76.89;96824.84;5092995;28;20445;-32
2021/12/24 00:08:18;;;;;;;12.13;6.00;;;;;;;-1.13;77.18;96817.84;5092937;28;20808;-32
2021/12/24 00:10:50;;;;;;;16.17;9.00;;;;;;;-1.11;77.43;96813.28;5092956;28;20491;-31
2021/12/24 00:13:19;;;;;;;28.80;11.00;;;;;;;-1.12;77.59;96827.25;5093355;28;20451;-31
2021/12/24 00:15:53;;;;;;;18.60;9.40;;;;;;;-1.12;77.58;96824.66;5092907;28;20442;-31
2021/12/24 00:18:31;;;;;;;13.73;6.93;;;;;;;-1.11;77.43;96810.66;5093279;28;20427;-31
2021/12/24 00:37:28;;;;;;;26.63;14.13;;;;;;;-1.12;77.43;96786.41;5096599;28;20442;-32
2021/12/24 00:40:06;;;;;;;19.43;13.33;;;;;;;-1.11;77.88;96787.22;5096573;28;20439;-32
2021/12/24 00:42:34;;;;;;;26.73;15.43;;;;;;;-1.10;78.36;96778.41;5096397;28;20469;-32
2021/12/24 00:45:02;;;;;;;33.10;15.60;;;;;;;-1.08;78.43;96782.47;5096603;28;20466;-31
2021/12/24 00:47:29;;;;;;;30.73;14.07;;;;;;;-1.06;78.46;96779.72;5096272;28;20454;-32
2021/12/24 00:49:57;;;;;;;31.07;15.40;;;;;;;-1.07;78.47;96770.28;5096847;28;20486;-31
2021/12/24 00:52:44;;;;;;;33.37;14.63;;;;;;;-1.07;78.02;96767.66;5096079;28;20454;-32
2021/12/24 00:55:11;;;;;;;19.63;11.73;;;;;;;-1.08;77.89;96769.44;5096317;28;20449;-31
2021/12/24 00:57:42;;;;;;;21.37;11.33;;;;;;;-1.06;77.31;96771.88;5096023;28;20923;-31
2021/12/24 01:00:13;;;;;;;22.87;10.93;;;;;;;-1.05;77.01;96776.16;5095872;28;20434;-31
2021/12/24 01:02:40;;;;;;;25.43;13.47;;;;;;;-1.05;76.96;96757.91;5095901;28;20436;-31
2021/12/24 01:05:08;;;;;;;20.30;11.30;;;;;;;-1.06;76.23;96757.06;5096125;28;20465;-31
2021/12/24 01:07:36;;;;;;;30.40;13.20;;;;;;;-1.05;75.94;96750.88;5096156;28;20443;-31
2021/12/24 01:10:04;;;;;;;22.57;12.50;;;;;;;-1.06;75.64;96738.00;5095613;28;20490;-31
2021/12/24 01:12:32;;;;;;;17.20;8.20;;;;;;;-1.05;75.25;96731.84;5095655;28;20538;-32
2021/12/24 01:15:01;;;;;;;10.03;7.00;;;;;;;-1.04;74.73;96736.06;5095571;28;20446;-31
2021/12/24 01:17:36;;;;;;;12.10;7.13;;;;;;;-1.05;74.61;96726.63;5095852;28;20443;-31
2021/12/24 01:20:12;;;;;;;9.73;6.57;;;;;;;-1.04;74.47;96730.84;5095343;28;20478;-32
2021/12/24 01:25:30;;;;;;;25.93;12.07;;;;;;;-1.02;74.72;96723.69;5095845;28;20481;-31
2021/12/24 01:39:06;;;;;;;13.20;8.30;;;;;;;-0.98;74.58;96698.91;5095313;28;20403;-32
2021/12/24 01:44:25;;;;;;;15.07;7.30;;;;;;;-1.03;74.85;96675.16;5095218;28;20407;-31
2021/12/24 01:46:56;;;;;;;17.67;9.37;;;;;;;-0.93;74.96;96686.19;5095279;28;20432;-32
2021/12/24 01:49:23;;;;;;;16.70;9.60;;;;;;;-0.92;74.85;96680.00;5095277;28;20467;-31
2021/12/24 01:51:51;;;;;;;20.13;10.10;;;;;;;-0.92;74.98;96682.63;5095211;28;20782;-31
2021/12/24 01:54:19;;;;;;;12.83;7.83;;;;;;;-0.91;75.17;96676.41;5095682;28;20446;-31
2021/12/24 01:56:47;;;;;;;20.30;10.63;;;;;;;-0.92;74.91;96674.78;5094851;28;20454;-31
2021/12/24 01:59:15;;;;;;;16.07;9.37;;;;;;;-0.91;75.15;96679.00;5094774;28;20448;-31
2021/12/24 02:01:42;;;;;;;67.13;27.47;;;;;;;-1.00;74.41;96671.41;5094683;28;20961;-31
2021/12/24 02:04:13;;;;;;;44.47;17.50;;;;;;;-1.11;74.84;96677.78;5094601;28;20442;-31
2021/12/24 02:06:42;;;;;;;30.20;15.00;;;;;;;-1.11;75.33;96672.56;5094692;28;20463;-31
2021/12/24 02:09:10;;;;;;;48.93;20.37;;;;;;;-1.11;75.84;96669.94;5094470;28;20447;-31
2021/12/24 02:11:39;;;;;;;37.07;16.47;;;;;;;-1.11;75.82;96659.53;5094442;28;20449;-31
2021/12/24 02:14:09;;;;;;;39.43;17.07;;;;;;;-1.14;75.32;96657.25;5094717;28;20448;-31
2021/12/24 02:30:35;;;;;;;18.33;9.30;;;;;;;-0.94;77.42;96642.88;5094210;28;20993;-31
2021/12/24 02:33:04;;;;;;;13.77;9.20;;;;;;;-0.87;77.85;96646.44;5094439;28;20811;-31
2021/12/24 02:35:32;;;;;;;26.63;11.37;;;;;;;-0.93;77.53;96618.41;5094151;28;20448;-31
2021/12/24 02:38:02;;;;;;;62.87;22.63;;;;;;;-0.78;77.75;96635.97;5094070;28;20447;-32
2021/12/24 02:40:30;;;;;;;32.77;12.43;;;;;;;-0.70;77.84;96648.97;5094023;28;20439;-31
2021/12/24 02:42:58;;;;;;;15.83;8.10;;;;;;;-0.65;78.08;96651.88;5094257;28;20441;-31
2021/12/24 02:45:29;;;;;;;26.30;12.07;;;;;;;-0.59;78.01;96640.78;5094042;28;20522;-31
2021/12/24 02:48:14;;;;;;;16.57;8.07;;;;;;;-0.54;77.79;96638.47;5093955;28;20918;-31
2021/12/24 02:56:14;;;;;;;17.93;8.93;;;;;;;-0.51;77.78;96617.28;5093658;28;20406;-32
2021/12/24 02:58:42;;;;;;;12.70;7.50;;;;;;;-0.49;77.23;96615.31;5093774;28;20449;-31
2021/12/24 03:01:11;;;;;;;21.00;9.00;;;;;;;-0.46;76.33;96603.72;5093666;28;20454;-31
2021/12/24 03:03:38;;;;;;;29.43;12.03;;;;;;;-0.43;76.31;96603.38;5094019;28;20447;-32
2021/12/24 03:06:06;;;;;;;16.33;9.33;;;;;;;-0.39;75.94;96606.44;5093650;28;20446;-32
2021/12/24 03:08:35;;;;;;;27.53;12.97;;;;;;;-0.39;76.02;96603.84;5093591;28;20450;-31
2021/12/24 03:11:03;;;;;;;75.17;27.60;;;;;;;-0.43;76.36;96598.97;5093527;28;21036;-31
2021/12/24 03:13:31;;;;;;;62.87;27.00;;;;;;;-0.43;76.34;96591.16;5093480;28;20434;-31
2021/12/24 03:15:59;;;;;;;121.87;39.63;;;;;;;-0.46;76.62;96594.09;5093511;28;20447;-31
2021/12/24 03:18:29;;;;;;;114.33;42.03;;;;;;;-0.47;76.39;96597.69;5094576;28;20447;-32
2021/12/24 03:21:05;;;;;;;110.43;40.27;;;;;;;-0.53;76.58;96585.34;5093255;28;20475;-32
2021/12/24 03:23:38;;;;;;;42.00;18.27;;;;;;;-0.43;76.24;96583.34;5093441;28;20467;-32
2021/12/24 03:26:09;;;;;;;43.63;19.60;;;;;;;-0.37;75.97;96587.03;5093437;28;20431;-31
2021/12/24 03:28:36;;;;;;;35.77;16.90;;;;;;;-0.36;76.39;96582.66;5093701;28;20423;-32
2021/12/24 03:31:06;;;;;;;47.27;18.80;;;;;;;-0.50;76.41;96558.09;5093302;28;20989;-31
2021/12/24 03:33:34;;;;;;;27.83;16.80;;;;;;;-0.40;77.05;96570.94;5093665;28;20447;-32
2021/12/24 03:36:02;;;;;;;35.20;14.07;;;;;;;-0.39;77.43;96562.09;5093605;28;20451;-32
2021/12/24 03:38:29;;;;;;;38.23;16.83;;;;;;;-0.34;76.92;96558.00;5093266;28;20922;-31
2021/12/24 03:40:57;;;;;;;24.73;12.07;;;;;;;-0.28;77.36;96559.94;5093223;28;20446;-32
2021/12/24 03:43:26;;;;;;;34.47;11.93;;;;;;;-0.26;77.39;96563.19;5093545;28;20449;-31
2021/12/24 03:46:00;;;;;;;27.90;11.30;;;;;;;-0.25;77.45;96550.94;5093536;28;20443;-31
2021/12/24 03:48:41;;;;;;;8.67;5.40;;;;;;;-0.21;77.59;96549.59;5093268;28;20430;-31
2021/12/24 03:51:26;;;;;;;7.20;4.80;;;;;;;-0.23;77.42;96554.19;5093114;28;20479;-32
2021/12/24 03:56:40;;;;;;;11.07;6.93;;;;;;;-0.03;76.35;96547.47;5093581;28;20407;-32
2021/12/24 03:59:10;;;;;;;16.23;8.70;;;;;;;0.04;75.69;96541.56;5093024;28;20453;-32
2021/12/24 04:01:38;;;;;;;28.60;9.93;;;;;;;0.10;75.93;96552.13;5093098;28;20911;-32
2021/12/24 04:04:06;;;;;;;22.47;12.20;;;;;;;0.16;76.09;96548.81;5093011;28;20814;-32
2021/12/24 04:06:34;;;;;;;10.97;4.83;;;;;;;0.23;75.99;96540.25;5093344;28;20443;-32
2021/12/24 04:09:01;;;;;;;35.50;16.40;;;;;;;0.24;75.82;96532.25;5094167;28;20454;-31
2021/12/24 04:11:28;;;;;;;28.10;12.63;;;;;;;0.24;76.35;96536.66;5097060;28;20986;-32
2021/12/24 04:13:56;;;;;;;30.00;10.97;;;;;;;0.22;76.50;96534.25;5096839;28;20443;-32
2021/12/24 04:16:25;;;;;;;18.77;8.80;;;;;;;0.17;76.68;96537.38;5097037;28;20799;-32
2021/12/24 04:19:02;;;;;;;23.73;9.17;;;;;;;0.17;77.27;96537.38;5096746;28;20447;-31
2021/12/24 04:26:58;;;;;;;44.37;16.97;;;;;;;0.11;77.30;96519.00;5096744;28;20557;-31
2021/12/24 04:29:27;;;;;;;36.73;18.00;;;;;;;0.23;77.77;96533.22;5096545;28;20453;-32
2021/12/24 04:32:08;;;;;;;43.83;21.00;;;;;;;0.25;77.29;96528.66;5096696;28;20513;-31
2021/12/24 04:34:38;;;;;;;32.83;15.50;;;;;;;0.26;77.61;96532.91;5096758;28;20836;-32
2021/12/24 04:37:47;;;;;;;47.30;20.73;;;;;;;0.31;77.80;96537.59;5096379;28;20439;-32
2021/12/24 04:51:14;;;;;;;47.17;22.87;;;;;;;0.96;76.97;96512.53;5096215;28;20465;-31
2021/12/24 05:02:09;;;;;;;46.40;19.97;;;;;;;1.35;75.46;96529.69;5096094;28;20415;-31
2021/12/24 05:04:47;;;;;;;73.17;26.90;;;;;;;1.35;75.55;96540.94;5096232;28;20437;-31
2021/12/24 05:07:31;;;;;;;38.70;17.67;;;;;;;1.36;75.68;96536.56;5096136;28;20779;-31
2021/12/24 05:09:59;;;;;;;23.17;12.27;;;;;;;1.39;75.57;96536.19;5096630;28;20438;-31
2021/12/24 05:12:27;;;;;;;26.77;14.13;;;;;;;1.42;75.62;96530.59;5095688;28;20449;-31
2021/12/24 05:14:54;;;;;;;22.40;12.97;;;;;;;1.50;75.01;96530.44;5095687;28;20442;-31
2021/12/24 05:17:27;;;;;;;41.87;17.53;;;;;;;1.56;75.19;96534.16;5095893;28;20462;-31
2021/12/24 05:22:41;;;;;;;27.47;11.23;;;;;;;1.84;74.78;96534.22;5095660;28;20407;-31
2021/12/24 05:25:08;;;;;;;32.80;15.23;;;;;;;1.92;74.44;96549.00;5095486;28;20441;-31
2021/12/24 05:27:37;;;;;;;25.37;11.30;;;;;;;2.04;73.83;96550.94;5095452;28;20948;-32
2021/12/24 05:30:06;;;;;;;15.80;9.20;;;;;;;2.14;73.34;96544.56;5095537;28;20853;-32
2021/12/24 05:32:33;;;;;;;18.40;10.03;;;;;;;2.16;73.11;96547.78;5095242;28;20930;-32
2021/12/24 05:35:02;;;;;;;18.33;10.03;;;;;;;2.18;73.33;96540.56;5095337;28;20454;-31
2021/12/24 05:37:29;;;;;;;20.33;14.23;;;;;;;2.30;72.91;96541.63;5095530;28;20927;-32
2021/12/24 05:39:57;;;;;;;7.30;6.47;;;;;;;2.43;72.31;96538.31;5095149;28;20443;-32
2021/12/24 05:42:26;;;;;;;15.70;9.00;;;;;;;2.52;71.91;96536.34;5095151;28;20451;-32
2021/12/24 05:44:57;;;;;;;121.50;40.03;;;;;;;2.54;71.78;96529.09;5095345;28;20453;-32
2021/12/24 05:47:24;;;;;;;49.93;22.90;;;;;;;2.49;71.95;96529.69;5094942;28;20526;-34
2021/12/24 05:49:51;;;;;;;64.13;22.30;;;;;;;2.44;71.71;96525.03;5091926;28;20805;-32
2021/12/24 05:52:20;;;;;;;54.80;23.70;;;;;;;2.37;71.93;96534.66;5093135;28;20570;-32
2021/12/24 05:54:47;;;;;;;44.97;17.20;;;;;;;2.29;72.24;96532.19;5092822;28;20439;-32
2021/12/24 05:57:15;;;;;;;64.57;24.80;;;;;;;2.24;72.61;96539.81;5092758;28;21013;-32
2021/12/24 05:59:42;;;;;;;61.23;25.03;;;;;;;2.15;72.66;96536.50;5092756;28;20450;-32
2021/12/24 06:02:10;;;;;;;89.93;38.73;;;;;;;2.11;73.25;96531.81;5092195;28;20444;-33
2021/12/24 06:04:37;;;;;;;146.50;63.63;;;;;;;2.08;73.30;96526.97;5092607;28;20439;-33
2021/12/24 06:07:05;;;;;;;157.30;77.40;;;;;;;1.96;73.55;96513.59;5092881;28;20465;-32
2021/12/24 06:09:34;;;;;;;92.37;46.40;;;;;;;2.07;74.05;96530.59;5092865;28;20447;-33
2021/12/24 06:12:01;;;;;;;43.30;26.43;;;;;;;2.10;74.26;96523.16;5092740;28;20518;-33
2021/12/24 06:14:28;;;;;;;36.10;19.03;;;;;;;2.18;74.21;96535.31;5091978;28;20443;-33
2021/12/24 06:17:01;;;;;;;87.97;43.37;;;;;;;2.20;74.07;96526.25;5092368;28;20439;-32
2021/12/24 06:19:29;;;;;;;111.70;47.60;;;;;;;2.26;73.86;96548.28;5092178;28;20471;-32
2021/12/24 06:21:58;;;;;;;101.13;47.90;;;;;;;2.24;73.95;96535.38;5092521;28;20434;-33
2021/12/24 06:24:25;;;;;;;97.90;41.53;;;;;;;2.04;74.32;96510.81;5092376;28;20439;-32
2021/12/24 06:26:54;;;;;;;90.53;40.87;;;;;;;2.20;74.62;96533.31;5092086;28;20447;-33
2021/12/24 06:29:22;;;;;;;109.47;44.80;;;;;;;2.38;74.90;96535.47;5092585;28;20449;-31
2021/12/24 06:31:50;;;;;;;86.03;45.63;;;;;;;2.59;74.33;96537.22;5091491;28;20756;-32
2021/12/24 06:34:17;;;;;;;83.43;38.43;;;;;;;2.74;73.91;96534.50;5092150;28;20439;-32
2021/12/24 06:36:47;;;;;;;66.87;31.10;;;;;;;2.77;73.80;96544.59;5091984;28;20457;-31
2021/12/24 06:39:15;;;;;;;52.03;31.50;;;;;;;2.79;73.38;96532.09;5092193;28;20447;-31
2021/12/24 06:41:43;;;;;;;33.97;22.17;;;;;;;2.84;72.83;96530.53;5091775;28;20442;-32
2021/12/24 06:44:12;;;;;;;38.43;23.17;;;;;;;2.89;72.75;96523.88;5092087;28;20926;-32
2021/12/24 06:46:41;;;;;;;31.80;19.20;;;;;;;2.95;72.67;96525.75;5091903;28;20447;-32
2021/12/24 06:49:09;;;;;;;39.17;19.53;;;;;;;3.00;73.24;96528.56;5091897;28;20439;-32
2021/12/24 06:51:36;;;;;;;29.03;18.73;;;;;;;2.90;73.41;96501.88;5091728;28;20499;-32
2021/12/24 06:54:04;;;;;;;37.03;19.50;;;;;;;3.11;73.05;96533.25;5091584;28;20455;-32
2021/12/24 06:56:32;;;;;;;43.03;19.27;;;;;;;3.16;72.92;96527.41;5091735;28;20431;-32
2021/12/24 06:58:59;;;;;;;28.57;15.40;;;;;;;3.24;72.66;96525.44;5092024;28;20443;-32
2021/12/24 07:01:28;;;;;;;13.63;7.80;;;;;;;3.34;72.45;96519.03;5091730;28;20927;-32
2021/12/24 07:03:55;;;;;;;14.40;8.80;;;;;;;3.45;71.64;96523.69;5091620;28;20478;-32
2021/12/24 07:06:22;;;;;;;10.07;6.77;;;;;;;3.53;71.62;96528.78;5091139;28;21114;-32
2021/12/24 07:08:50;;;;;;;13.73;8.80;;;;;;;3.60;71.23;96519.09;5091594;28;20446;-32
2021/12/24 07:11:17;;;;;;;10.27;6.53;;;;;;;3.50;71.23;96492.41;5091771;28;20490;-32
2021/12/24 07:13:44;;;;;;;17.83;7.80;;;;;;;3.75;70.98;96521.53;5091459;28;21042;-32
2021/12/24 07:16:12;;;;;;;31.10;18.40;;;;;;;3.85;70.84;96526.41;5091453;28;20450;-31
2021/12/24 07:18:41;;;;;;;16.87;15.17;;;;;;;3.92;70.67;96514.09;5091506;28;20442;-31
2021/12/24 07:21:09;;;;;;;19.00;9.30;;;;;;;3.98;70.53;96529.06;5090850;28;20573;-31
2021/12/24 07:23:36;;;;;;;49.50;27.10;;;;;;;4.05;70.46;96527.25;5091289;28;20446;-32
2021/12/24 07:26:04;;;;;;;41.77;18.97;;;;;;;4.13;70.23;96514.91;5091372;28;20443;-32
2021/12/24 07:28:31;;;;;;;26.43;15.40;;;;;;;4.21;69.96;96520.75;5091321;28;20443;-32
2021/12/24 07:30:58;;;;;;;18.30;11.03;;;;;;;4.29;69.99;96514.50;5091228;28;20439;-32
2021/12/24 07:33:25;;;;;;;38.63;17.43;;;;;;;4.37;69.04;96503.78;5091063;28;20438;-32
2021/12/24 07:35:54;;;;;;;48.10;22.37;;;;;;;4.38;68.88;96489.63;5091246;28;20981;-32
2021/12/24 07:38:22;;;;;;;33.70;17.63;;;;;;;4.55;68.20;96511.03;5091196;28;20443;-31
2021/12/24 07:40:49;;;;;;;36.03;14.93;;;;;;;4.48;68.17;96490.00;5091474;28;20466;-32
2021/12/24 07:43:16;;;;;;;27.50;12.93;;;;;;;4.63;67.82;96489.00;5092733;28;20439;-32
2021/12/24 07:45:45;;;;;;;38.30;17.13;;;;;;;4.73;67.70;96494.59;5094909;28;20481;-32
2021/12/24 07:48:14;;;;;;;33.47;15.13;;;;;;;5.00;67.81;96497.19;5095390;28;20497;-32
2021/12/24 07:53:31;;;;;;;22.33;9.10;;;;;;;5.94;65.83;96478.06;5095364;28;20410;-32
2021/12/24 07:55:58;;;;;;;15.43;8.33;;;;;;;6.34;64.85;96487.44;5095386;28;20781;-32
2021/12/24 07:58:25;;;;;;;9.00;5.73;;;;;;;6.48;63.20;96496.88;5094727;28;20450;-33
2021/12/24 08:00:53;;;;;;;12.10;5.47;;;;;;;6.52;63.27;96505.16;5095382;28;20454;-32
2021/12/24 08:03:20;;;;;;;13.60;6.90;;;;;;;6.49;62.91;96495.81;5094990;28;20447;-32
2021/12/24 08:05:49;;;;;;;20.30;8.80;;;;;;;6.43;62.65;96486.16;5095217;28;20852;-31
2021/12/24 08:08:16;;;;;;;22.07;11.57;;;;;;;6.45;63.11;96488.56;5095164;28;20443;-32
2021/12/24 08:10:45;;;;;;;18.87;11.40;;;;;;;6.39;62.51;96497.34;5094868;28;20447;-32
2021/12/24 08:13:12;;;;;;;22.10;12.40;;;;;;;6.27;62.88;96481.44;5094646;28;20486;-33
2021/12/24 08:15:40;;;;;;;22.77;11.60;;;;;;;6.38;62.69;96501.81;5094948;28;20454;-32
2021/12/24 08:18:07;;;;;;;24.40;16.27;;;;;;;6.40;62.43;96491.84;5094972;28;21196;-32
2021/12/24 08:20:34;;;;;;;16.20;7.27;;;;;;;6.48;62.44;96502.13;5094544;28;20570;-32
2021/12/24 08:23:02;;;;;;;8.97;5.27;;;;;;;6.62;61.73;96494.09;5094672;28;20454;-32
2021/12/24 08:25:29;;;;;;;12.20;5.83;;;;;;;6.77;61.58;96502.47;5094154;28;20580;-32
2021/12/24 08:27:58;;;;;;;10.13;5.50;;;;;;;7.03;60.90;96495.28;5094780;28;20447;-34
2021/12/24 08:30:25;;;;;;;4.60;3.60;;;;;;;7.17;60.38;96502.81;5094531;28;20450;-33
2021/12/24 08:32:54;;;;;;;11.23;5.23;;;;;;;7.21;60.53;96519.03;5094314;28;21019;-33
2021/12/24 08:35:23;;;;;;;6.83;4.87;;;;;;;7.29;60.05;96502.91;5094730;28;20508;-32
2021/12/24 08:37:50;;;;;;;6.93;5.07;;;;;;;7.39;59.51;96505.81;5093885;28;20450;-31
2021/12/24 08:40:18;;;;;;;6.77;4.73;;;;;;;7.60;59.47;96506.34;5094601;28;20442;-32
2021/12/24 08:42:45;;;;;;;8.77;5.07;;;;;;;7.86;59.04;96499.09;5094215;28;20934;-33
2021/12/24 08:45:14;;;;;;;8.93;5.97;;;;;;;7.96;58.77;96494.06;5094309;28;20919;-32
2021/12/24 08:47:41;;;;;;;7.70;5.83;;;;;;;8.04;58.58;96488.44;5094247;28;20969;-32
2021/12/24 08:50:13;;;;;;;8.87;6.30;;;;;;;8.30;57.79;96502.25;5094121;28;20940;-32
2021/12/24 08:52:43;;;;;;;7.80;5.90;;;;;;;8.20;57.18;96479.84;5093690;28;21057;-33
2021/12/24 08:55:11;;;;;;;8.00;5.60;;;;;;;8.44;57.49;96498.41;5093499;28;20467;-32
2021/12/24 08:57:39;;;;;;;6.97;6.30;;;;;;;8.45;56.94;96484.13;5094916;28;20443;-32
2021/12/24 09:00:09;;;;;;;8.13;6.87;;;;;;;8.45;57.27;96476.19;5096278;28;20795;-31
2021/12/24 09:02:38;;;;;;;13.87;6.73;;;;;;;8.47;57.40;96483.91;5095987;28;20439;-32
2021/12/24 09:05:05;;;;;;;8.27;5.10;;;;;;;8.47;57.52;96468.81;5096159;28;20454;-32
2021/12/24 09:07:33;;;;;;;13.60;7.80;;;;;;;8.42;57.70;96463.44;5096184;28;20447;-32
2021/12/24 09:10:00;;;;;;;13.90;9.90;;;;;;;8.38;57.42;96455.09;5096051;28;20453;-32
2021/12/24 09:12:27;;;;;;;12.53;9.20;;;;;;;8.32;57.88;96456.03;5095628;28;20490;-32
2021/12/24 09:14:54;;;;;;;10.73;6.70;;;;;;;8.28;58.44;96438.22;5096038;28;20446;-32
2021/12/24 09:17:22;;;;;;;13.87;7.03;;;;;;;8.18;58.23;96415.78;5095908;28;20465;-32
2021/12/24 09:19:52;;;;;;;8.80;7.30;;;;;;;8.19;58.18;96424.53;5092382;28;20487;-32
2021/12/24 09:22:22;;;;;;;12.10;8.50;;;;;;;8.11;58.36;96412.47;5093506;28;20529;-32
2021/12/24 09:24:53;;;;;;;20.13;10.33;;;;;;;8.05;58.71;96396.72;5093546;28;20449;-31
2021/12/24 09:27:20;;;;;;;19.77;10.93;;;;;;;8.11;58.31;96407.19;5093759;28;20454;-32
2021/12/24 09:29:48;;;;;;;34.43;18.47;;;;;;;8.10;58.19;96399.47;5093169;28;20447;-32
2021/12/24 09:32:15;;;;;;;13.77;10.33;;;;;;;8.09;58.13;96403.97;5092994;28;20851;-32
2021/12/24 09:34:43;;;;;;;14.30;9.93;;;;;;;8.06;58.38;96408.88;5093252;28;20443;-32
2021/12/24 09:37:11;;;;;;;8.33;6.80;;;;;;;8.07;57.75;96398.09;5093239;28;20446;-32
2021/12/24 09:39:39;;;;;;;16.77;10.70;;;;;;;8.07;58.08;96392.00;5093117;28;20450;-32
2021/12/24 09:42:06;;;;;;;10.80;8.23;;;;;;;8.01;58.17;96385.78;5093298;28;20443;-33
2021/12/24 09:44:34;;;;;;;35.63;17.33;;;;;;;7.95;60.78;96376.91;5092668;28;20450;-32
2021/12/24 09:47:01;;;;;;;36.23;19.13;;;;;;;8.01;60.39;96380.50;5092903;28;20872;-32
2021/12/24 09:49:29;;;;;;;14.33;9.60;;;;;;;8.10;58.51;96389.69;5093244;28;20828;-32
2021/12/24 09:51:57;;;;;;;13.40;8.07;;;;;;;8.32;58.33;96370.59;5092745;28;21000;-32
2021/12/24 09:54:26;;;;;;;10.07;6.00;;;;;;;8.59;57.75;96374.38;5092795;28;20900;-34
2021/12/24 09:56:55;;;;;;;7.10;4.53;;;;;;;8.85;56.50;96366.94;5092441;28;20439;-31
2021/12/24 09:59:23;;;;;;;6.13;4.53;;;;;;;9.08;57.35;96357.28;5092790;28;20486;-32
2021/12/24 10:01:54;;;;;;;5.57;4.83;;;;;;;9.29;56.02;96354.00;5092749;28;20447;-32
2021/12/24 10:04:26;;;;;;;6.87;4.43;;;;;;;9.48;55.30;96353.75;5092687;28;20470;-32
2021/12/24 10:06:56;;;;;;;4.30;3.90;;;;;;;9.63;54.26;96351.34;5092655;28;20907;-32
2021/12/24 10:09:32;;;;;;;5.67;3.80;;;;;;;9.78;54.52;96351.59;5092783;28;20427;-32
2021/12/24 10:12:02;;;;;;;8.60;4.97;;;;;;;9.93;54.15;96345.72;5092159;28;20471;-32
2021/12/24 10:14:34;;;;;;;3.93;3.60;;;;;;;10.12;54.30;96345.47;5092449;28;20450;-32
2021/12/24 10:17:02;;;;;;;3.20;2.50;;;;;;;10.24;54.25;96340.88;5092527;28;20997;-31
2021/12/24 10:19:29;;;;;;;6.50;3.47;;;;;;;10.37;52.65;96326.47;5092088;28;20471;-32
2021/12/24 10:22:03;;;;;;;3.70;3.30;;;;;;;10.47;52.42;96325.78;5092636;28;20445;-32
2021/12/24 10:24:31;;;;;;;5.57;2.50;;;;;;;10.54;52.83;96319.25;5091782;28;20481;-31
2021/12/24 10:27:00;;;;;;;9.03;5.10;;;;;;;10.63;52.11;96316.97;5094612;28;20443;-31
2021/12/24 10:29:32;;;;;;;7.17;4.00;;;;;;;10.75;52.20;96311.50;5095020;28;20442;-31
2021/12/24 10:32:08;;;;;;;7.27;5.07;;;;;;;10.89;51.65;96304.75;5094511;28;20470;-31
2021/12/24 10:34:36;;;;;;;20.93;9.27;;;;;;;10.95;51.63;96295.81;5094185;28;20784;-31
2021/12/24 10:37:10;;;;;;;15.60;4.93;;;;;;;11.10;51.59;96305.78;5094145;28;20447;-31
2021/12/24 10:39:43;;;;;;;8.00;3.90;;;;;;;11.20;50.50;96286.44;5094025;28;20914;-31
2021/12/24 10:42:14;;;;;;;11.20;6.47;;;;;;;11.24;50.95;96290.22;5094079;28;20431;-31
2021/12/24 10:44:43;;;;;;;12.43;5.30;;;;;;;11.28;50.04;96293.97;5095131;28;20439;-31
2021/12/24 10:47:15;;;;;;;8.73;5.13;;;;;;;11.34;50.28;96282.34;5093932;28;20439;-31
2021/12/24 10:50:06;;;;;;;7.63;3.70;;;;;;;11.37;50.30;96281.03;5094186;28;20427;-31
2021/12/24 10:52:45;;;;;;;13.23;6.00;;;;;;;11.43;50.24;96266.72;5094213;28;20569;-31
2021/12/24 10:55:18;;;;;;;4.43;3.80;;;;;;;11.48;49.54;96270.19;5093876;28;20423;-31
2021/12/24 10:57:47;;;;;;;8.00;7.20;;;;;;;11.56;49.87;96273.47;5090813;28;20583;-32
2021/12/24 11:00:20;;;;;;;7.70;5.80;;;;;;;11.58;49.57;96263.38;5091958;28;20434;-32
2021/12/24 11:02:53;;;;;;;6.87;4.50;;;;;;;11.61;49.50;96271.63;5091700;28;20431;-32
2021/12/24 11:05:29;;;;;;;7.00;4.00;;;;;;;11.64;49.49;96267.69;5091574;28;20427;-31
2021/12/24 11:07:59;;;;;;;8.13;4.77;;;;;;;11.63;48.99;96263.41;5091823;28;20431;-32
2021/12/24 11:10:30;;;;;;;8.33;3.27;;;;;;;11.70;49.38;96256.00;5091047;28;20446;-32
2021/12/24 11:12:59;;;;;;;5.70;4.00;;;;;;;11.71;49.31;96262.94;5091502;28;20562;-31
2021/12/24 11:15:31;;;;;;;5.80;3.77;;;;;;;11.60;48.21;96237.34;5091479;28;20496;-31
2021/12/24 11:18:01;;;;;;;11.07;5.50;;;;;;;11.69;47.96;96257.06;5091251;28;20431;-31
2021/12/24 11:20:30;;;;;;;9.37;5.30;;;;;;;11.66;48.17;96252.28;5091292;28;20571;-31
2021/12/24 11:23:01;;;;;;;16.57;8.40;;;;;;;11.59;48.88;96238.38;5090881;28;20496;-31
2021/12/24 11:25:33;;;;;;;24.40;12.60;;;;;;;11.76;48.88;96257.63;5091224;28;20447;-31
2021/12/24 11:28:02;;;;;;;9.40;5.40;;;;;;;11.81;48.61;96257.69;5091618;28;20427;-32
2021/12/24 11:30:31;;;;;;;40.63;17.17;;;;;;;11.71;48.95;96233.69;5091191;28;20874;-32
2021/12/24 11:32:58;;;;;;;26.87;12.00;;;;;;;11.88;47.89;96263.59;5091439;28;20576;-32
2021/12/24 11:35:30;;;;;;;24.10;13.70;;;;;;;11.86;47.52;96251.59;5091142;28;20451;-32
2021/12/24 11:37:59;;;;;;;19.40;11.30;;;;;;;11.95;47.22;96254.59;5091579;28;20427;-32
2021/12/24 11:40:28;;;;;;;14.20;8.10;;;;;;;12.04;47.67;96251.16;5091558;28;20470;-32
2021/12/24 11:43:00;;;;;;;5.07;3.70;;;;;;;12.01;46.77;96256.22;5091522;28;20521;-32
2021/12/24 11:45:29;;;;;;;11.07;6.33;;;;;;;12.04;46.60;96242.41;5091376;28;20427;-31
2021/12/24 11:47:58;;;;;;;13.40;7.07;;;;;;;12.07;47.87;96233.91;5090916;28;20454;-31
2021/12/24 11:50:26;;;;;;;6.17;3.83;;;;;;;12.07;47.22;96250.66;5091084;28;20816;-31
2021/12/24 11:52:56;;;;;;;12.77;7.60;;;;;;;12.09;47.13;96239.78;5091418;28;20482;-31
2021/12/24 11:55:25;;;;;;;8.97;5.53;;;;;;;12.10;47.04;96249.34;5091189;28;20468;-31
2021/12/24 11:57:57;;;;;;;9.67;4.83;;;;;;;12.13;47.30;96259.50;5091049;28;20443;-31
2021/12/24 12:00:26;;;;;;;5.67;3.30;;;;;;;12.13;46.46;96246.19;5091097;28;20433;-32
2021/12/24 12:02:55;;;;;;;6.33;4.03;;;;;;;12.08;46.59;96251.47;5090982;28;20474;-31
2021/12/24 12:05:26;;;;;;;24.47;15.13;;;;;;;11.93;46.09;96230.91;5091126;28;20437;-31
2021/12/24 12:08:39;;;;;;;7.93;4.10;;;;;;;12.09;47.42;96243.22;5091146;28;20438;-30
2021/12/24 12:11:19;;;;;;;6.20;3.40;;;;;;;12.05;46.33;96246.66;5076208;28;20470;-32
2021/12/24 12:13:50;;;;;;;7.73;5.23;;;;;;;12.01;46.82;96242.91;5091292;28;20849;-32
2021/12/24 12:16:20;;;;;;;20.77;11.80;;;;;;;12.00;46.94;96234.16;5090537;28;20431;-31
2021/12/24 12:19:01;;;;;;;9.13;7.13;;;;;;;12.01;47.17;96243.72;5090926;28;20446;-32
2021/12/24 12:21:40;;;;;;;9.40;7.33;;;;;;;11.99;46.61;96237.84;5090692;28;20520;-31
2021/12/24 12:26:58;;;;;;;4.33;3.93;;;;;;;11.95;46.92;96238.63;5091306;28;20399;-32
2021/12/24 12:29:33;;;;;;;17.33;6.83;;;;;;;11.99;47.12;96237.06;5092940;28;20453;-31
2021/12/24 12:32:20;;;;;;;9.07;5.63;;;;;;;11.99;46.77;96237.84;5096577;28;20903;-30
2021/12/24 12:35:03;;;;;;;6.73;4.70;;;;;;;11.95;47.07;96235.97;5096139;28;20439;-30
2021/12/24 12:37:32;;;;;;;21.30;13.53;;;;;;;11.96;47.36;96229.56;5094226;28;20446;-30
2021/12/24 12:40:05;;;;;;;12.53;8.60;;;;;;;11.93;47.08;96236.22;5094531;28;20446;-31
2021/12/24 12:43:03;;;;;;;14.83;7.67;;;;;;;11.88;47.35;96237.00;5094369;28;20465;-31
2021/12/24 12:46:08;;;;;;;14.90;7.10;;;;;;;11.85;47.87;96239.34;5094559;28;20948;-31
2021/12/24 12:48:50;;;;;;;9.13;6.07;;;;;;;11.82;47.33;96240.66;5078764;28;20447;-31
2021/12/24 12:51:22;;;;;;;16.00;7.90;;;;;;;11.77;47.71;96240.63;5094219;28;20427;-31
2021/12/24 12:53:52;;;;;;;13.83;6.77;;;;;;;11.60;48.03;96210.75;5093993;28;20486;-32
2021/12/24 12:56:23;;;;;;;3.80;3.17;;;;;;;11.68;47.53;96244.84;5094351;28;20534;-30
2021/12/24 12:58:57;;;;;;;11.53;5.33;;;;;;;11.64;48.07;96235.78;5094002;28;20430;-32
2021/12/24 13:01:25;;;;;;;12.47;6.90;;;;;;;11.65;48.12;96232.03;5093952;28;20437;-32
2021/12/24 13:04:16;;;;;;;11.80;5.50;;;;;;;11.65;47.99;96234.69;5093464;28;20843;-32
2021/12/24 13:06:54;;;;;;;3.90;3.27;;;;;;;11.62;47.72;96235.22;5094154;28;20906;-31
2021/12/24 13:09:26;;;;;;;3.03;2.80;;;;;;;11.53;48.78;96232.25;5093747;28;20446;-32